Friday, March 27, 2015, 1:12 AM EDT

KPOU, Poughkeepsie Dutchess Cty

Location: Wappingers Falls, NY, United States Lat: 41.633
Local Time: 1:12 AM EDT ( 5:12 GMT) Lon: -73.883
Time Zone: US/Eastern Elev: 167 ft

Show me the last for .
Show Decoded

2015-03-27 00:53 METAR KPOU 270453Z AUTO 00000KT 10SM SCT039 OVC110 04/02 A2969 RMK AO2 SLP052
                 T00440022 401000017 =
2015-03-26 23:53 METAR KPOU 270353Z AUTO 36007KT 10SM FEW035 OVC090 05/03 A2969 =
2015-03-26 22:53 METAR KPOU 270253Z AUTO 36007KT 6SM -RA BR FEW011 BKN065 OVC080 06/03 A2970 RMK
                 AO2 SLP054 P0012 60028 T00560033 53002 =
2015-03-26 22:31 METAR KPOU 270231Z AUTO 36008KT 5SM -RA BR BKN010 BKN055 OVC085 06/04 A2970 RMK
                 AO2 P0010 T00560039 =
2015-03-26 22:24 METAR KPOU 270224Z AUTO 03010KT 4SM RA BR BKN008 OVC050 06/04 A2969 RMK AO2
                 PRESFR P0009 T00560039 =
2015-03-26 22:12 METAR KPOU 270212Z AUTO 35006KT 4SM RA BR BKN010 OVC030 06/04 A2972 RMK AO2
                 P0004 T00560039 =
2015-03-26 21:53 METAR KPOU 270153Z AUTO 36006G15KT 7SM -RA BKN009 OVC050 06/04 A2970 RMK AO2
                 SLP056 P0013 T00560039 =
2015-03-26 21:34 METAR KPOU 270134Z AUTO 01009KT 5SM RA BR BKN009 BKN027 OVC037 06/04 A2970 RMK
                 AO2 P0010 T00610044 =
2015-03-26 21:19 METAR KPOU 270119Z AUTO 36010KT 3SM RA BR SCT008 BKN027 OVC042 06/04 A2969 RMK
                 AO2 P0007 T00560044 =
2015-03-26 21:11 METAR KPOU 270111Z AUTO 34006KT 7SM -RA FEW008 BKN037 OVC045 06/04 A2971 RMK AO2
                 P0002 T00610044 =
2015-03-26 20:53 METAR KPOU 270053Z AUTO 36005KT 6SM -RA BR SCT027 BKN037 OVC045 06/04 A2969 RMK
                 AO2 LTG DSNT SW RAB2359 SLP050 P0003 T00610044 =
2015-03-26 20:50 METAR KPOU 270050Z AUTO 36005KT 6SM -RA BR SCT027 OVC037 06/04 A2969 RMK AO2 LTG
                 DSNT SW RAB2359 P0003 =
2015-03-26 20:00 METAR KPOU 270000Z 01010KT 4SM -RA BR BKN007 OVC017 06/04 A2968 RMK AO2 RAB2359
                 CIG 004V010 P0001 T00610044 =
2015-03-26 19:53 METAR KPOU 262353Z 34010KT 1 1/4SM BR OVC004 06/04 A2969 RMK AO2 PRESRR SLP052
                 60002 T00610044 10100 20061 53014 =
2015-03-26 18:53 METAR KPOU 262253Z AUTO 01006KT 1 1/4SM BR OVC004 08/07 A2963 RMK AO2 CIG
                 002V006 SLP030 T00780067 =
2015-03-26 17:53 METAR KPOU 262153Z AUTO 34006KT 1SM BR OVC003 08/07 A2963 RMK AO2 SLP031
                 T00780067 =
2015-03-26 17:45 METAR KPOU 262145Z AUTO 35007KT 1SM BR OVC003 08/07 A2963 RMK AO2 T00830067 =
2015-03-26 17:32 METAR KPOU 262132Z AUTO 33005KT 3/4SM BR OVC003 08/07 A2962 RMK AO2 T00830067 =
2015-03-26 16:53 METAR KPOU 262053Z AUTO 00000KT 1SM BR BKN004 OVC007 08/07 A2965 RMK AO2 CIG
                 003V007 SLP038 60002 T00830072 58014 =
2015-03-26 16:36 METAR KPOU 262036Z AUTO 35003KT 1 1/2SM BR OVC007 09/07 A2966 RMK AO2 T00890072
                 =
2015-03-26 15:53 METAR KPOU 261953Z AUTO 33004KT 2SM BR BKN007 OVC012 09/07 A2967 RMK AO2 RAE36
                 SLP046 P0002 T00890072 =
2015-03-26 15:49 METAR KPOU 261949Z AUTO 33003KT 2SM BR BKN008 OVC012 09/07 A2967 RMK AO2 RAE36
                 P0002 =
2015-03-26 15:38 METAR KPOU 261938Z 00000KT 2 1/2SM BR OVC011 09/08 A2969 RMK AO2 RAE36 CIG
                 008V013 P0002 T00940078 =
2015-03-26 15:15 METAR KPOU 261915Z 32003KT 1 3/4SM -RA OVC012 09/07 A2969 RMK AO2 P0001
                 T00940067 =
2015-03-26 14:53 METAR KPOU 261853Z 00000KT 4SM -RA OVC012 09/07 A2969 RMK AO2 RAE1759B52 SLP052
                 P0000 T00940067 =
2015-03-26 14:15 METAR KPOU 261815Z 35003KT 5SM HZ OVC013 09/06 A2973 RMK AO2 RAE1759 P0000
                 T00890061 =
2015-03-26 13:53 METAR KPOU 261753Z 31003KT 4SM -RA BR OVC016 08/06 A2975 RMK AO2 RAE1659B49
                 SLP073 P0000 60000 T00830061 10083 20028 56049 =
2015-03-26 12:53 METAR KPOU 261653Z VRB03KT 3SM -RA OVC018 08/06 A2980 =
2015-03-26 11:53 METAR KPOU 261553Z 14003KT 7SM OVC015 07/05 A2983 RMK AO2 SLP099 T00720050 =
2015-03-26 10:53 METAR KPOU 261453Z 17003KT 10SM BKN020 OVC026 07/04 A2990 RMK AO2 SLP122
                 T00720039 58019 =
2015-03-26 10:37 METAR KPOU 261437Z 14005KT 10SM SCT024 BKN029 OVC043 07/04 A2991 RMK AO2
                 T00720039 =
2015-03-26 09:53 METAR KPOU 261353Z 26003KT 6SM HZ SCT033 07/04 A2993 RMK AO2 SLP134 T00720044 =
2015-03-26 09:40 METAR KPOU 261340Z 00000KT 3SM BR CLR 06/04 A2993 RMK AO2 T00610039 =
2015-03-26 08:53 METAR KPOU 261253Z COR 00000KT 2 1/2SM BR FEW002 FEW100 04/03 A2994 =
2015-03-26 08:42 METAR KPOU 261242Z 19003KT 4SM BR SCT002 BKN095 04/03 A2994 RMK AO2 T00390028 =
2015-03-26 08:32 METAR KPOU 261232Z 18003KT 2SM BR BKN002 03/03 A2995 RMK AO2 T00330028 =
2015-03-26 08:13 METAR KPOU 261213Z 00000KT 1/2SM FG OVC002 03/02 A2995 RMK AO2 T00280022 =
2015-03-26 07:53 METAR KPOU 261153Z 00000KT 1SM BR OVC003 03/02 A2995 RMK AO2 SLP141 70011
                 T00280017 10028 20017 55016 =
2015-03-26 07:49 METAR KPOU 261149Z 12003KT 1SM BR OVC003 03/02 A2995 RMK AO2 =
2015-03-26 07:27 METAR KPOU 261127Z 00000KT 1SM BR OVC002 02/02 A2996 RMK AO2 T00220017 =
2015-03-26 07:11 METAR KPOU 261111Z 13003KT 1/4SM FG BKN002 OVC010 02/01 A2997 RMK AO2 T00220011
                 =
2015-03-26 07:04 METAR KPOU 261104Z 15003KT 1/2SM FG BKN002 OVC010 02/01 A2997 RMK AO2 T00220011
                 =
2015-03-26 06:53 METAR KPOU 261053Z 00000KT 1 1/4SM BR FEW002 OVC011 02/01 A2997 =
2015-03-26 06:17 METAR KPOU 261017Z 00000KT 1 1/4SM BR OVC002 02/02 A2999 RMK AO2 T00220017 =
2015-03-26 05:53 METAR KPOU 260953Z 00000KT 1 1/4SM BR OVC003 02/01 A3000 RMK AO2 SLP157
                 T00220011 =
2015-03-26 05:36 METAR KPOU 260936Z 00000KT 1SM BR OVC003 02/01 A3001 RMK AO2 T00170011 =
2015-03-26 05:11 METAR KPOU 260911Z 00000KT 1/4SM FG BKN004 02/01 A3001 RMK AO2 T00170006 =
2015-03-26 05:05 METAR KPOU 260905Z 00000KT 1/2SM FG SCT006 02/01 A3001 RMK AO2 T00170006 =
2015-03-26 04:56 METAR KPOU 260856Z 00000KT 1 1/4SM BR FEW006 SCT024 02/01 A3000 RMK AO2
                 T00220011 =
2015-03-26 04:53 METAR KPOU 260853Z 00000KT 2SM BR FEW005 BKN024 02/01 A3000 RMK AO2 SLP157
                 T00220011 56017 =
2015-03-26 04:34 METAR KPOU 260834Z 19003KT 3SM BR SCT004 OVC024 03/02 A3000 RMK AO2 T00280017 =
2015-03-26 04:25 METAR KPOU 260825Z 00000KT 1 1/2SM BR BKN004 OVC024 02/01 A3000 RMK AO2
                 T00220011 =
2015-03-26 04:10 METAR KPOU 260810Z 00000KT 2 1/2SM BR OVC004 03/02 A3001 RMK AO2 T00280017 =
2015-03-26 03:53 METAR KPOU 260753Z 00000KT 2SM BR OVC005 02/01 A3002 RMK AO2 SLP164 T00220011 =
2015-03-26 03:48 METAR KPOU 260748Z 14004KT 2SM BR OVC005 02/01 A3002 RMK AO2 =
2015-03-26 03:23 METAR KPOU 260723Z 00000KT 1 1/4SM BR OVC004 03/01 A3004 RMK AO2 T00280011 =
2015-03-26 02:53 METAR KPOU 260653Z 00000KT 3/4SM BR OVC004 02/01 A3005 RMK AO2 SLP174 T00220011
                 =
2015-03-26 02:27 METAR KPOU 260627Z 00000KT 1SM BR OVC003 02/02 A3006 RMK AO2 T00220017 =
2015-03-26 01:53 METAR KPOU 260553Z 00000KT 3/4SM BR OVC004 02/01 A3009 RMK AO2 SLP187 60004
                 T00220011 10028 20022 56023 =
2015-03-26 01:48 METAR KPOU 260548Z 00000KT 3/4SM BR OVC004 02/01 A3009 RMK AO2 =
2015-03-26 01:35 METAR KPOU 260535Z 00000KT 1 1/4SM BR OVC004 03/02 A3010 RMK AO2 T00280017 =
2015-03-26 01:26 METAR KPOU 260526Z 00000KT 3/4SM BR OVC005 03/02 A3010 RMK AO2 T00280017 =

Support USWX by starting your Amazon purchase here.